Time;durP1;ratioP1;P1;durP2;ratioP2;P2;SDS_P1;SDS_P2;PMS_P1;PMS_P2;Temp;Humidity;BMP_temperature;BMP_pressure;BME280_temperature;BME280_humidity;BME280_pressure;Samples;Min_cycle;Max_cycle;Signal;HPM_P1;HPM_P2
2024/04/23 00:01:58;;;;;;;3.75;3.13;;;;;;;13.21;100.00;116452.06;5448571;26;20031;-68
2024/04/23 00:04:23;;;;;;;5.28;3.15;;;;;;;13.82;100.00;116501.22;5448265;26;20007;-68
2024/04/23 00:07:00;;;;;;;5.70;4.05;;;;;;;13.80;100.00;116423.84;5448234;26;19995;-68
2024/04/23 00:09:26;;;;;;;5.72;3.70;;;;;;;13.50;100.00;116245.03;5445586;26;20003;-68
2024/04/23 00:11:52;;;;;;;4.90;3.33;;;;;;;13.66;100.00;113612.81;5448768;26;19999;-68
2024/04/23 00:14:19;;;;;;;4.10;3.45;;;;;;;13.81;100.00;113266.66;5416737;26;20017;-68
2024/04/23 00:16:58;;;;;;;3.72;3.35;;;;;;;13.70;100.00;113080.81;5445044;26;20011;-68
2024/04/23 00:19:24;;;;;;;3.78;3.40;;;;;;;13.84;100.00;113127.72;5447657;26;20079;-70
2024/04/23 00:21:49;;;;;;;4.15;3.75;;;;;;;13.52;100.00;112976.09;5447586;26;19999;-68
2024/04/23 00:24:15;;;;;;;4.30;3.47;;;;;;;13.80;100.00;112932.94;5416125;26;19999;-68
2024/04/23 00:26:40;;;;;;;5.75;3.63;;;;;;;13.36;100.00;112789.63;5447921;26;20010;-68
2024/04/23 00:29:05;;;;;;;4.47;3.58;;;;;;;13.40;100.00;112768.94;5416044;26;20014;-68
2024/04/23 00:31:32;;;;;;;4.97;3.28;;;;;;;13.83;100.00;112659.00;5416346;26;20485;-68
2024/04/23 00:33:58;;;;;;;3.78;3.05;;;;;;;13.18;100.00;112486.78;5416737;26;20018;-68
2024/04/23 00:36:23;;;;;;;3.25;2.83;;;;;;;13.46;100.00;112416.25;5415667;26;20429;-68
2024/04/23 00:38:48;;;;;;;3.67;2.60;;;;;;;13.33;100.00;112378.16;5416586;26;20014;-68
2024/04/23 00:41:14;;;;;;;4.05;2.80;;;;;;;12.82;100.00;112358.78;5416272;26;20324;-68
2024/04/23 00:43:39;;;;;;;3.63;2.85;;;;;;;13.15;100.00;112272.75;5448350;26;20010;-68
2024/04/23 00:46:07;;;;;;;2.95;2.67;;;;;;;13.26;100.00;112324.03;5447356;26;20328;-68
2024/04/23 00:48:33;;;;;;;4.28;2.60;;;;;;;12.49;100.00;112128.09;5447860;26;20031;-67
2024/04/23 00:50:59;;;;;;;2.97;2.60;;;;;;;13.18;100.00;112327.94;5415752;26;19998;-69
2024/04/23 00:53:24;;;;;;;4.43;2.83;;;;;;;13.01;100.00;112303.78;5448011;26;20456;-68
2024/04/23 00:55:51;;;;;;;4.25;2.60;;;;;;;13.25;100.00;112498.97;5446586;26;20459;-68
2024/04/23 00:58:16;;;;;;;6.68;2.97;;;;;;;13.00;100.00;112533.34;5446982;26;20322;-69
2024/04/23 01:00:41;;;;;;;2.97;2.45;;;;;;;12.96;100.00;112645.28;5416089;26;20056;-68
2024/04/23 01:03:07;;;;;;;5.57;2.65;;;;;;;12.74;100.00;112734.53;5447889;26;20013;-68
2024/04/23 01:05:32;;;;;;;3.65;2.80;;;;;;;13.07;100.00;112931.44;5447203;26;20429;-68
2024/04/23 01:07:58;;;;;;;3.28;2.88;;;;;;;12.27;100.00;112922.53;5446489;26;20017;-68
2024/04/23 01:10:23;;;;;;;2.95;2.47;;;;;;;12.41;100.00;113133.16;5447632;26;20018;-68
2024/04/23 01:12:49;;;;;;;5.35;2.90;;;;;;;12.56;100.00;113216.16;5447690;26;19999;-68
2024/04/23 01:15:15;;;;;;;4.93;2.55;;;;;;;12.41;100.00;112793.75;5447684;26;19999;-70
2024/04/23 01:17:42;;;;;;;3.25;2.60;;;;;;;12.66;100.00;112897.09;5443353;26;19999;-69
2024/04/23 01:20:12;;;;;;;4.43;2.83;;;;;;;13.05;100.00;112882.53;5414931;26;21108;-68
2024/04/23 01:22:50;;;;;;;3.88;2.80;;;;;;;12.59;100.00;112913.72;5454929;26;20015;-68
2024/04/23 01:25:22;;;;;;;6.13;3.00;;;;;;;12.45;100.00;112938.53;5451952;26;20006;-68
2024/04/23 01:27:48;;;;;;;;;;;;;;;13.31;100.00;113231.28;5453944;26;20038;-68
2024/04/23 01:30:15;;;;;;;5.47;3.22;;;;;;;12.72;100.00;113138.81;5455022;26;19993;-69
2024/04/23 01:32:43;;;;;;;5.00;3.08;;;;;;;12.64;100.00;113424.91;5451878;26;20003;-68
2024/04/23 01:35:10;;;;;;;6.20;2.97;;;;;;;13.21;100.00;113636.91;5452052;26;20005;-69
2024/04/23 01:37:36;;;;;;;3.78;3.00;;;;;;;12.83;100.00;113660.63;5450824;26;20010;-67
2024/04/23 01:40:04;;;;;;;4.10;2.92;;;;;;;12.35;100.00;113760.03;5423006;26;20115;-68
2024/04/23 01:42:30;;;;;;;4.70;2.70;;;;;;;13.03;100.00;116595.00;5454422;26;20068;-68
2024/04/23 01:44:57;;;;;;;5.15;3.17;;;;;;;12.84;100.00;116840.03;5450825;26;20002;-68
2024/04/23 01:47:22;;;;;;;3.33;2.80;;;;;;;12.32;100.00;117408.28;5419580;26;20015;-69
2024/04/23 01:49:48;;;;;;;4.57;3.05;;;;;;;12.84;100.00;118235.94;5419096;26;20051;-67
2024/04/23 01:52:13;;;;;;;4.28;2.90;;;;;;;12.74;100.00;118528.06;5454423;26;20068;-68
2024/04/23 01:54:39;;;;;;;4.03;3.05;;;;;;;12.78;100.00;118756.56;5422658;26;20010;-68
2024/04/23 01:57:06;;;;;;;4.00;3.20;;;;;;;13.05;100.00;118849.56;5451600;26;20006;-68
2024/04/23 01:59:33;;;;;;;3.67;3.30;;;;;;;12.90;100.00;118918.88;5422608;26;20007;-69
2024/04/23 02:02:00;;;;;;;3.55;2.97;;;;;;;12.95;100.00;119046.84;5422229;26;20010;-68
2024/04/23 02:04:26;;;;;;;3.45;3.03;;;;;;;13.17;100.00;119176.84;5454345;26;20031;-67
2024/04/23 02:06:52;;;;;;;3.25;2.88;;;;;;;13.12;100.00;119056.53;5419541;26;20018;-67
2024/04/23 02:09:17;;;;;;;3.80;2.90;;;;;;;13.21;100.00;119146.28;5421204;26;20007;-67
2024/04/23 02:11:43;;;;;;;4.93;3.10;;;;;;;13.05;100.00;119041.06;5446405;26;19999;-68
2024/04/23 02:14:09;;;;;;;3.15;2.40;;;;;;;12.90;100.00;118925.00;5421580;26;20017;-69
2024/04/23 02:16:35;;;;;;;3.38;2.90;;;;;;;11.87;100.00;118790.88;5454077;26;20003;-68
2024/04/23 02:19:00;;;;;;;4.97;2.65;;;;;;;12.94;100.00;119003.78;5422169;26;20018;-68
2024/04/23 02:21:26;;;;;;;3.65;2.53;;;;;;;12.81;100.00;119040.53;5452873;26;21104;-68
2024/04/23 02:23:51;;;;;;;2.95;2.38;;;;;;;12.35;100.00;118935.38;5454019;26;20013;-68
2024/04/23 02:26:17;;;;;;;4.57;2.80;;;;;;;13.04;100.00;119162.25;5453990;26;20006;-67
2024/04/23 02:28:42;;;;;;;2.75;2.33;;;;;;;12.96;100.00;119116.50;5422318;26;19998;-67
2024/04/23 02:31:08;;;;;;;5.10;2.90;;;;;;;12.26;100.00;119035.41;5421156;26;19995;-66
2024/04/23 02:33:33;;;;;;;4.68;2.53;;;;;;;12.89;100.00;119075.97;5414149;26;20003;-67
2024/04/23 02:35:59;;;;;;;2.78;2.33;;;;;;;12.08;100.00;118880.22;5447630;26;20382;-68
2024/04/23 02:38:24;;;;;;;4.15;2.50;;;;;;;12.20;100.00;118929.66;5448550;26;19995;-68
2024/04/23 02:40:50;;;;;;;2.92;2.63;;;;;;;12.29;100.00;119165.38;5416899;26;19995;-68
2024/04/23 02:43:15;;;;;;;3.63;2.50;;;;;;;12.85;100.00;119339.94;5417043;26;20009;-68
2024/04/23 02:45:40;;;;;;;4.22;2.47;;;;;;;12.98;100.00;119428.41;5449369;26;20083;-67
2024/04/23 02:48:07;;;;;;;4.25;2.58;;;;;;;12.32;100.00;119334.41;5417353;26;20014;-69
2024/04/23 02:50:32;;;;;;;3.30;2.58;;;;;;;12.99;100.00;119493.56;5445145;26;20067;-68
2024/04/23 02:52:58;;;;;;;3.00;2.50;;;;;;;12.91;100.00;119405.78;5416832;26;20344;-68
2024/04/23 02:55:23;;;;;;;3.40;2.33;;;;;;;12.91;100.00;119311.81;5416186;26;20014;-69
2024/04/23 02:57:48;;;;;;;3.70;2.58;;;;;;;12.94;100.00;119283.44;5448697;26;20002;-68
2024/04/23 03:00:14;;;;;;;3.45;2.67;;;;;;;12.68;100.00;119224.00;5416836;26;20440;-68
2024/04/23 03:02:39;;;;;;;4.43;2.53;;;;;;;12.61;100.00;119143.41;5417952;26;20045;-68
2024/04/23 03:05:05;;;;;;;4.75;2.70;;;;;;;13.03;100.00;119022.66;5448601;26;20010;-68
2024/04/23 03:07:31;;;;;;;4.13;2.58;;;;;;;12.40;100.00;118507.00;5449459;26;20364;-68
2024/04/23 03:09:56;;;;;;;3.30;2.47;;;;;;;12.51;100.00;118426.22;5418115;26;20446;-69
2024/04/23 03:12:22;;;;;;;3.97;2.50;;;;;;;13.09;100.00;118427.03;5449249;26;19995;-68
2024/04/23 03:14:47;;;;;;;8.57;2.83;;;;;;;12.74;100.00;118190.56;5416883;26;20030;-67
2024/04/23 03:17:13;;;;;;;4.47;2.67;;;;;;;13.26;100.00;118032.97;5417095;26;20072;-68
2024/04/23 03:19:38;;;;;;;2.92;2.42;;;;;;;12.87;100.00;117764.84;5448121;26;19998;-69
2024/04/23 03:22:04;;;;;;;4.18;2.72;;;;;;;13.02;100.00;117470.13;5416080;26;20322;-68
2024/04/23 03:24:29;;;;;;;4.03;2.25;;;;;;;12.61;100.00;117221.66;5448977;26;20017;-68
2024/04/23 03:26:54;;;;;;;3.42;2.80;;;;;;;13.18;100.00;117133.66;5448852;26;19999;-69
2024/04/23 03:29:20;;;;;;;5.55;2.70;;;;;;;13.13;100.00;117022.31;5416411;26;20014;-68
2024/04/23 03:31:46;;;;;;;2.88;2.67;;;;;;;13.39;100.00;116964.28;5446915;26;20108;-68
2024/04/23 03:34:12;;;;;;;4.45;2.80;;;;;;;13.33;100.00;116932.06;5449230;26;20003;-69
2024/04/23 03:36:37;;;;;;;4.03;2.92;;;;;;;13.28;100.00;116832.50;5448250;26;20076;-68
2024/04/23 03:39:03;;;;;;;3.25;2.95;;;;;;;13.13;100.00;116695.56;5432390;26;20002;-68
2024/04/23 03:41:28;;;;;;;5.38;2.63;;;;;;;13.11;100.00;116640.38;5436179;26;19995;-68
2024/04/23 03:43:54;;;;;;;4.20;2.40;;;;;;;13.32;100.00;116635.03;5433673;26;19998;-69
2024/04/23 03:46:19;;;;;;;4.03;2.67;;;;;;;12.78;100.00;116407.97;5412335;26;19995;-69
2024/04/23 03:48:44;;;;;;;4.45;2.85;;;;;;;13.07;100.00;116456.66;5432860;26;20014;-67
2024/04/23 03:51:10;;;;;;;3.97;2.70;;;;;;;12.59;100.00;116350.59;5412666;26;20013;-66
2024/04/23 03:53:35;;;;;;;4.13;3.00;;;;;;;12.71;100.00;116387.69;5411337;26;20353;-66
2024/04/23 03:56:01;;;;;;;5.57;2.85;;;;;;;13.07;100.00;116448.94;5435293;26;20042;-66
2024/04/23 03:58:26;;;;;;;5.50;3.15;;;;;;;13.17;100.00;116626.41;5410581;26;20470;-69
2024/04/23 04:00:51;;;;;;;6.10;3.33;;;;;;;12.95;100.00;116644.47;5438230;26;19995;-69
2024/04/23 04:06:04;;;;;;;3.95;3.10;;;;;;;12.76;100.00;117078.22;5435828;26;20017;-67
2024/04/23 04:08:39;;;;;;;4.15;3.35;;;;;;;12.86;100.00;117354.16;5435532;26;20047;-68
2024/04/23 04:11:05;;;;;;;4.00;3.28;;;;;;;12.74;100.00;117563.97;5412309;26;19995;-68
2024/04/23 04:13:32;;;;;;;6.10;3.30;;;;;;;12.46;100.00;117939.63;5432195;26;21818;-66
2024/04/23 04:15:58;;;;;;;4.68;3.38;;;;;;;13.15;100.00;120139.06;5414274;26;19999;-67
2024/04/23 04:18:23;;;;;;;6.05;3.63;;;;;;;12.82;100.00;121395.63;5438300;26;19999;-69
2024/04/23 04:20:49;;;;;;;5.82;3.95;;;;;;;12.91;100.00;121893.97;5433557;26;20333;-69
2024/04/23 04:23:14;;;;;;;5.05;3.80;;;;;;;12.83;100.00;122119.06;5411562;26;19999;-65
2024/04/23 04:25:39;;;;;;;5.97;3.60;;;;;;;12.60;100.00;122574.19;5434633;26;20013;-67
2024/04/23 04:28:05;;;;;;;4.43;3.38;;;;;;;12.89;100.00;122556.53;5413161;26;20036;-68
2024/04/23 04:30:31;;;;;;;5.85;3.92;;;;;;;12.39;100.00;122495.28;5413302;26;20104;-69
2024/04/23 04:32:56;;;;;;;5.03;3.40;;;;;;;13.00;100.00;122634.00;5434359;26;20014;-69
2024/04/23 04:35:21;;;;;;;4.95;3.40;;;;;;;12.38;100.00;122526.63;5413247;26;20013;-68
2024/04/23 04:37:47;;;;;;;6.30;3.47;;;;;;;13.05;100.00;122610.84;5413137;26;20003;-69
2024/04/23 04:40:12;;;;;;;5.68;3.80;;;;;;;12.60;100.00;122554.69;5446188;26;20081;-68
2024/04/23 04:42:38;;;;;;;5.38;3.83;;;;;;;12.99;100.00;122386.94;5415447;26;20441;-68
2024/04/23 04:45:04;;;;;;;5.43;3.88;;;;;;;12.84;100.00;120955.59;5447082;26;20034;-68
2024/04/23 04:47:29;;;;;;;4.10;3.70;;;;;;;12.35;100.00;120055.66;5447040;26;19998;-68
2024/04/23 04:49:55;;;;;;;4.53;3.70;;;;;;;12.80;100.00;120084.25;5448306;26;20052;-68
2024/04/23 04:52:20;;;;;;;6.80;3.60;;;;;;;13.00;100.00;119845.59;5445113;26;20052;-68
2024/04/23 04:54:46;;;;;;;4.28;3.78;;;;;;;12.34;100.00;119821.31;5445618;26;20003;-70
2024/04/23 04:57:11;;;;;;;6.18;3.75;;;;;;;12.67;100.00;119807.84;5445576;26;20014;-68
2024/04/23 04:59:37;;;;;;;4.93;3.50;;;;;;;12.24;100.00;119847.47;5414246;26;20074;-68
2024/04/23 05:02:02;;;;;;;6.30;3.80;;;;;;;12.37;100.00;119905.81;5414733;26;20011;-68
2024/04/23 05:04:28;;;;;;;8.05;3.97;;;;;;;11.94;100.00;119796.13;5415326;26;20010;-68
2024/04/23 05:06:53;;;;;;;5.75;4.00;;;;;;;12.81;100.00;119963.13;5446642;26;20444;-68
2024/04/23 05:09:19;;;;;;;5.07;3.95;;;;;;;12.62;100.00;119050.50;5447128;26;20080;-68
2024/04/23 05:11:44;;;;;;;7.20;4.28;;;;;;;12.14;100.00;118925.44;5448102;26;20010;-69
2024/04/23 05:14:10;;;;;;;5.65;3.72;;;;;;;12.66;100.00;119048.19;5447784;26;20451;-70
2024/04/23 05:16:36;;;;;;;6.05;4.15;;;;;;;12.41;100.00;119053.38;5447636;26;20011;-68
2024/04/23 05:19:01;;;;;;;5.80;4.22;;;;;;;12.82;100.00;119213.38;5416231;26;20011;-69
2024/04/23 05:21:28;;;;;;;8.77;5.47;;;;;;;12.25;100.00;119206.13;5423169;26;20011;-69
2024/04/23 05:23:53;;;;;;;10.65;6.45;;;;;;;13.04;100.00;119409.63;5433276;26;20010;-69
2024/04/23 05:26:19;;;;;;;7.55;4.20;;;;;;;12.46;100.00;119257.19;5437321;26;20351;-68
2024/04/23 05:28:45;;;;;;;7.80;4.60;;;;;;;12.17;100.00;119229.63;5415334;26;20370;-69
2024/04/23 05:33:55;;;;;;;6.13;4.30;;;;;;;12.55;100.00;119187.91;5446521;26;20402;-69
2024/04/23 05:36:22;;;;;;;7.72;4.32;;;;;;;12.20;100.00;119189.47;5447396;26;20015;-67
2024/04/23 05:38:49;;;;;;;6.00;4.10;;;;;;;12.34;100.00;119223.03;5444747;26;20014;-66
2024/04/23 05:41:14;;;;;;;7.88;4.53;;;;;;;11.54;100.00;119105.78;5446531;26;19998;-66
2024/04/23 05:43:40;;;;;;;6.72;4.68;;;;;;;12.43;100.00;119277.84;5445670;26;20372;-65
2024/04/23 05:46:05;;;;;;;6.45;4.57;;;;;;;12.36;100.00;119288.56;5446480;26;20014;-65
2024/04/23 05:49:09;;;;;;;6.68;4.50;;;;;;;12.49;100.00;119174.41;5414739;26;20075;-65
2024/04/23 05:52:13;;;;;;;5.18;4.05;;;;;;;12.57;100.00;118925.22;5413092;26;20013;-66
2024/04/23 05:55:15;;;;;;;5.93;4.45;;;;;;;12.47;100.00;118721.78;5446961;26;19999;-66
2024/04/23 05:57:41;;;;;;;6.88;4.22;;;;;;;12.60;100.00;118697.81;5446377;26;20071;-66
2024/04/23 06:00:07;;;;;;;5.18;4.60;;;;;;;12.49;100.00;118674.47;5446779;26;20010;-66
2024/04/23 06:02:33;;;;;;;5.90;4.22;;;;;;;12.27;100.00;118583.78;5445630;26;20447;-67
2024/04/23 06:04:58;;;;;;;6.22;4.10;;;;;;;11.74;100.00;118442.50;5447020;26;20003;-66
2024/04/23 06:07:23;;;;;;;6.60;4.50;;;;;;;12.28;100.00;118455.09;5447560;26;20003;-67
2024/04/23 06:09:49;;;;;;;7.32;4.40;;;;;;;12.06;100.00;118385.38;5449474;26;19999;-67
2024/04/23 06:12:14;;;;;;;7.65;4.90;;;;;;;11.87;100.00;118281.25;5449225;26;20021;-66
2024/04/23 06:14:43;;;;;;;7.47;5.05;;;;;;;12.25;100.00;118396.31;5449024;26;20013;-66
2024/04/23 06:17:35;;;;;;;5.90;4.65;;;;;;;12.25;100.00;118413.25;5450394;26;20087;-67
2024/04/23 06:20:05;;;;;;;6.90;4.65;;;;;;;11.63;100.00;118250.75;5450015;26;19998;-67
2024/04/23 06:22:35;;;;;;;7.35;4.68;;;;;;;12.09;100.00;118400.56;5431385;26;20321;-66
2024/04/23 06:25:02;;;;;;;6.60;4.28;;;;;;;12.06;100.00;118421.22;5405130;26;20050;-66
2024/04/23 06:27:28;;;;;;;6.10;5.10;;;;;;;12.23;100.00;118430.81;5433642;26;20286;-66
2024/04/23 06:29:54;;;;;;;8.77;4.90;;;;;;;11.79;100.00;118526.63;5427251;26;20075;-66
2024/04/23 06:32:21;;;;;;;7.18;5.68;;;;;;;12.19;100.00;118682.69;5427186;26;20003;-66
2024/04/23 06:34:47;;;;;;;7.53;5.60;;;;;;;12.38;100.00;118726.03;5394156;26;20002;-67
2024/04/23 06:37:13;;;;;;;8.45;5.80;;;;;;;12.33;100.00;118831.44;5402292;26;20105;-67
2024/04/23 06:39:40;;;;;;;9.48;5.65;;;;;;;12.47;100.00;118920.75;5401852;26;20072;-66
2024/04/23 06:42:05;;;;;;;6.78;5.35;;;;;;;12.29;100.00;119000.34;5426444;26;20008;-66
2024/04/23 06:44:31;;;;;;;7.03;5.25;;;;;;;12.39;100.00;119110.94;5432604;26;20010;-66
2024/04/23 06:46:57;;;;;;;7.07;5.43;;;;;;;12.40;100.00;119247.81;5395387;26;20009;-66
2024/04/23 06:49:24;;;;;;;6.05;5.45;;;;;;;11.78;100.00;119281.63;5400132;26;19999;-67
2024/04/23 06:51:49;;;;;;;7.13;5.82;;;;;;;12.45;100.00;118999.81;5437386;26;20014;-66
2024/04/23 06:54:15;;;;;;;6.18;5.43;;;;;;;12.50;100.00;119180.53;5401547;26;20437;-66
2024/04/23 06:56:40;;;;;;;7.10;5.13;;;;;;;12.03;100.00;119191.53;5432190;26;20029;-66
2024/04/23 06:59:06;;;;;;;7.55;4.93;;;;;;;12.46;100.00;119349.50;5467770;26;20002;-66
2024/04/23 07:01:32;;;;;;;7.63;5.15;;;;;;;12.49;100.00;119389.78;5417815;26;20050;-66
2024/04/23 07:03:58;;;;;;;8.55;5.53;;;;;;;12.46;100.00;119446.91;5417792;26;19999;-67
2024/04/23 07:06:23;;;;;;;7.50;5.40;;;;;;;12.29;100.00;119605.25;5417388;26;20015;-66
2024/04/23 07:08:49;;;;;;;7.75;5.97;;;;;;;12.44;100.00;119700.28;5449151;26;20318;-66
2024/04/23 07:11:16;;;;;;;8.25;6.38;;;;;;;11.88;100.00;119662.75;5417015;26;20007;-66
2024/04/23 07:13:45;;;;;;;6.97;5.63;;;;;;;12.34;100.00;119822.91;5417412;26;20013;-66
2024/04/23 07:16:14;;;;;;;8.15;6.57;;;;;;;11.63;100.00;119759.69;5436215;26;20013;-66
2024/04/23 07:18:40;;;;;;;9.20;6.43;;;;;;;12.14;100.00;120048.88;5440136;26;19999;-67
2024/04/23 07:21:06;;;;;;;7.90;5.60;;;;;;;12.28;100.00;120139.06;5444526;26;20313;-66
2024/04/23 07:23:31;;;;;;;7.03;5.40;;;;;;;11.78;100.00;120114.06;5447662;26;20013;-67
2024/04/23 07:25:57;;;;;;;7.95;5.90;;;;;;;12.32;100.00;120234.25;5417646;26;20003;-66
2024/04/23 07:28:22;;;;;;;6.90;5.95;;;;;;;11.72;100.00;120541.06;5416111;26;21305;-66
2024/04/23 07:30:51;;;;;;;7.03;5.60;;;;;;;12.28;100.00;120472.34;5446433;26;19995;-67
2024/04/23 07:33:18;;;;;;;8.45;6.20;;;;;;;12.50;100.00;120524.31;5417251;26;20026;-67
2024/04/23 07:35:45;;;;;;;7.43;5.95;;;;;;;12.11;100.00;120573.47;5443437;26;20011;-66
2024/04/23 07:38:11;;;;;;;7.00;5.88;;;;;;;12.47;100.00;120751.66;5447266;26;20050;-67
2024/04/23 07:40:37;;;;;;;8.82;6.03;;;;;;;12.02;100.00;120642.47;5448749;26;20006;-67
2024/04/23 07:43:03;;;;;;;9.32;6.63;;;;;;;12.55;100.00;120661.06;5416196;26;20456;-66
2024/04/23 07:45:29;;;;;;;11.38;7.07;;;;;;;12.17;100.00;120706.03;5441921;26;20027;-66
2024/04/23 07:47:54;;;;;;;9.70;6.95;;;;;;;12.56;100.00;120833.91;5447608;26;20014;-66
2024/04/23 07:50:20;;;;;;;11.02;7.57;;;;;;;12.44;100.00;120884.13;5444322;26;20402;-67
2024/04/23 07:52:45;;;;;;;8.82;6.82;;;;;;;12.18;100.00;120881.38;5442822;26;20010;-66
2024/04/23 07:55:10;;;;;;;8.18;6.18;;;;;;;12.78;100.00;120969.16;5416962;26;20010;-69
2024/04/23 07:57:36;;;;;;;10.45;6.40;;;;;;;12.04;100.00;120846.41;5416494;26;20444;-66
2024/04/23 08:00:01;;;;;;;12.13;6.72;;;;;;;12.55;100.00;120850.91;5415535;26;23196;-66
2024/04/23 08:02:27;;;;;;;8.65;6.28;;;;;;;12.72;100.00;120738.91;5416523;26;20328;-67
2024/04/23 08:04:52;;;;;;;9.38;6.57;;;;;;;12.64;100.00;120324.13;5447999;26;19999;-67
2024/04/23 08:07:19;;;;;;;9.32;7.05;;;;;;;12.29;100.00;119951.31;5417061;26;20035;-66
2024/04/23 08:09:44;;;;;;;9.60;7.05;;;;;;;12.79;100.00;119939.59;5414336;26;20477;-66
2024/04/23 08:12:09;;;;;;;11.60;8.52;;;;;;;12.04;100.00;119766.47;5448247;26;20017;-66
2024/04/23 08:14:35;;;;;;;28.33;19.35;;;;;;;12.70;100.00;119556.31;5416310;26;20030;-65
2024/04/23 08:17:00;;;;;;;16.10;11.93;;;;;;;12.67;100.00;119401.56;5446659;26;20002;-67
2024/04/23 08:19:26;;;;;;;14.70;11.13;;;;;;;12.63;100.00;119157.66;5416052;26;20332;-67
2024/04/23 08:21:51;;;;;;;19.52;12.73;;;;;;;12.63;100.00;119121.75;5415111;26;20034;-65
2024/04/23 08:24:17;;;;;;;16.25;12.30;;;;;;;12.23;100.00;118616.84;5447424;26;20015;-67
2024/04/23 08:26:42;;;;;;;12.75;10.30;;;;;;;12.42;100.00;118662.19;5415943;26;20003;-66
2024/04/23 08:29:07;;;;;;;13.35;10.35;;;;;;;12.50;100.00;118706.25;5447771;26;20002;-66
2024/04/23 08:31:33;;;;;;;12.70;8.88;;;;;;;12.20;100.00;118484.78;5446151;26;20018;-66
2024/04/23 08:33:59;;;;;;;10.07;6.47;;;;;;;12.51;100.00;118321.13;5445693;26;20328;-66
2024/04/23 08:36:25;;;;;;;9.93;5.80;;;;;;;12.41;100.00;118180.91;5447620;26;22344;-66
2024/04/23 08:38:50;;;;;;;9.07;6.22;;;;;;;12.73;100.00;117991.19;5414487;26;20002;-66
2024/04/23 08:41:17;;;;;;;7.88;5.45;;;;;;;12.22;100.00;117856.50;5447709;26;19998;-66
2024/04/23 08:43:59;;;;;;;8.45;5.28;;;;;;;12.72;100.00;117818.97;5447899;26;20432;-64
2024/04/23 08:46:25;;;;;;;6.85;5.57;;;;;;;12.79;100.00;117754.25;5415440;26;20010;-67
2024/04/23 08:48:51;;;;;;;6.90;5.60;;;;;;;12.48;100.00;117523.25;5404122;26;20065;-66
2024/04/23 08:51:19;;;;;;;7.57;5.18;;;;;;;12.35;100.00;117380.88;5440010;26;20003;-68
2024/04/23 08:53:48;;;;;;;6.75;5.20;;;;;;;12.88;100.00;117483.72;5447939;26;20026;-66
2024/04/23 08:56:22;;;;;;;6.68;5.57;;;;;;;12.26;100.00;117253.06;5415678;26;20002;-66
2024/04/23 08:58:49;;;;;;;6.60;5.20;;;;;;;12.86;100.00;117214.13;5445777;26;19999;-66
2024/04/23 09:01:26;;;;;;;7.18;5.05;;;;;;;12.80;100.00;117237.28;5447319;26;20031;-67
2024/04/23 09:03:55;;;;;;;7.60;4.97;;;;;;;12.79;100.00;117132.81;5446831;26;20011;-66
2024/04/23 09:06:21;;;;;;;5.32;4.82;;;;;;;12.77;100.00;117123.75;5447587;26;20010;-66
2024/04/23 09:08:47;;;;;;;10.18;5.45;;;;;;;12.78;100.00;116894.97;5416373;26;20403;-67
2024/04/23 09:11:13;;;;;;;8.02;4.95;;;;;;;12.34;100.00;116853.72;5439481;26;20010;-67
2024/04/23 09:13:39;;;;;;;7.00;5.25;;;;;;;12.56;100.00;116816.22;5454669;26;20080;-66
2024/04/23 09:16:06;;;;;;;5.28;4.07;;;;;;;12.86;100.00;116821.84;5394692;26;20007;-68
2024/04/23 09:18:31;;;;;;;5.53;4.10;;;;;;;12.74;100.00;116638.56;5036368;26;10000329;-67
2024/04/23 09:20:57;;;;;;;5.25;4.25;;;;;;;12.82;100.00;116436.22;5411477;26;20014;-67
2024/04/23 09:23:26;;;;;;;5.75;4.60;;;;;;;12.47;100.00;116348.78;5408398;26;20038;-66
2024/04/23 09:25:54;;;;;;;7.10;4.90;;;;;;;12.58;100.00;116136.94;5411141;26;20003;-67
2024/04/23 09:28:23;;;;;;;6.15;4.75;;;;;;;12.49;100.00;116285.06;5412000;26;19999;-67
2024/04/23 09:30:50;;;;;;;6.45;4.82;;;;;;;12.93;100.00;116088.44;5443005;26;20011;-68
2024/04/23 09:33:24;;;;;;;6.43;4.88;;;;;;;12.82;100.00;115965.59;5445074;26;20006;-66
2024/04/23 09:36:06;;;;;;;5.28;3.70;;;;;;;12.98;100.00;116385.25;5445179;26;20003;-67
2024/04/23 09:38:35;;;;;;;5.55;3.85;;;;;;;12.57;100.00;115878.84;5443494;26;20003;-66
2024/04/23 09:41:02;;;;;;;4.70;4.05;;;;;;;12.66;100.00;115993.56;5447562;26;20079;-66
2024/04/23 09:43:28;;;;;;;5.18;4.53;;;;;;;12.93;100.00;115871.50;5448811;26;20003;-67
2024/04/23 09:45:54;;;;;;;6.22;4.70;;;;;;;12.29;100.00;115839.09;5450672;26;20002;-67
2024/04/23 09:48:29;;;;;;;5.07;4.25;;;;;;;12.57;100.00;115934.22;5450417;26;20406;-68
2024/04/23 09:51:01;;;;;;;5.90;3.92;;;;;;;13.02;100.00;115918.69;5417052;26;20003;-66
2024/04/23 09:53:38;;;;;;;3.55;3.03;;;;;;;12.93;100.00;115863.81;5448410;26;20433;-66
2024/04/23 09:56:10;;;;;;;4.63;3.55;;;;;;;12.87;100.00;115810.28;5449388;26;20011;-67
2024/04/23 09:58:35;;;;;;;;;;;;;;;13.03;100.00;115844.72;5451284;26;20014;-67
2024/04/23 10:01:01;;;;;;;3.40;2.78;;;;;;;12.88;100.00;115764.47;5419712;26;19925;-67
2024/04/23 10:03:29;;;;;;;4.97;3.20;;;;;;;12.52;100.00;115793.94;5417548;26;20012;-67
2024/04/23 10:06:07;;;;;;;4.20;3.25;;;;;;;13.02;100.00;115993.03;5418991;26;20067;-67
2024/04/23 10:08:47;;;;;;;4.53;3.45;;;;;;;13.18;100.00;116020.50;5450664;26;20013;-66
2024/04/23 10:11:20;;;;;;;4.15;3.22;;;;;;;13.02;100.00;115968.38;5418518;26;20010;-67
2024/04/23 10:13:52;;;;;;;4.30;2.90;;;;;;;12.48;100.00;115960.38;5418937;26;19999;-68
2024/04/23 10:16:27;;;;;;;;;;;;;;;13.15;100.00;116101.91;5449277;26;20328;-66
2024/04/23 10:18:58;;;;;;;3.92;3.05;;;;;;;13.05;100.00;116070.69;5450147;26;19931;-67
2024/04/23 10:21:25;;;;;;;5.03;3.17;;;;;;;13.07;100.00;116107.91;5418435;26;19998;-67
2024/04/23 10:23:59;;;;;;;5.25;3.00;;;;;;;12.63;100.00;116073.94;5450375;26;20003;-67
2024/04/23 10:26:26;;;;;;;4.95;3.20;;;;;;;12.60;100.00;116017.84;5415351;26;20007;-66
2024/04/23 10:28:52;;;;;;;5.28;3.10;;;;;;;13.18;100.00;116129.19;5417960;26;20015;-66
2024/04/23 10:31:18;;;;;;;2.78;2.47;;;;;;;13.17;100.00;116118.59;5378704;26;20000;-67
2024/04/23 10:33:48;;;;;;;3.67;2.38;;;;;;;12.97;100.00;116126.97;5376938;26;20427;-67
2024/04/23 10:36:14;;;;;;;3.40;2.78;;;;;;;13.30;100.00;116088.28;5378442;26;20342;-66
2024/04/23 10:38:43;;;;;;;5.05;3.20;;;;;;;13.34;100.00;116101.16;5374730;26;20032;-66
2024/04/23 10:41:11;;;;;;;6.20;4.07;;;;;;;13.43;100.00;116077.53;5378630;26;20015;-67
2024/04/23 10:43:38;;;;;;;5.25;3.83;;;;;;;13.74;100.00;116057.97;5378438;26;20341;-66
2024/04/23 10:46:05;;;;;;;7.47;3.58;;;;;;;13.34;100.00;116026.78;5378388;26;20515;-67
2024/04/23 10:48:36;;;;;;;5.53;3.63;;;;;;;13.59;100.00;116059.72;5378674;26;20359;-66
2024/04/23 10:51:02;;;;;;;5.53;3.30;;;;;;;12.91;100.00;116003.50;5377396;26;20111;-66
2024/04/23 10:53:32;;;;;;;4.93;3.08;;;;;;;13.11;100.00;116092.56;5376220;26;20004;-66
2024/04/23 10:55:58;;;;;;;4.07;3.10;;;;;;;13.25;100.00;116190.50;5376166;26;20438;-66
2024/04/23 10:58:24;;;;;;;4.32;3.38;;;;;;;13.50;100.00;116192.75;5378654;26;20035;-66
2024/04/23 11:01:00;;;;;;;4.38;3.55;;;;;;;13.35;100.00;116282.66;5378105;26;20011;-67
2024/04/23 11:03:28;;;;;;;4.63;3.78;;;;;;;13.34;100.00;116306.41;5376666;26;20004;-68
2024/04/23 11:05:54;;;;;;;5.53;3.75;;;;;;;13.49;100.00;116314.00;5377796;26;20081;-66
2024/04/23 11:08:21;;;;;;;4.78;3.40;;;;;;;12.81;100.00;116219.00;5378442;26;20016;-66
2024/04/23 11:10:49;;;;;;;5.35;3.28;;;;;;;13.28;100.00;116402.50;5375480;26;20004;-67
2024/04/23 11:13:35;;;;;;;6.32;3.60;;;;;;;13.26;100.00;116460.19;5376152;26;20419;-66
2024/04/23 11:16:13;;;;;;;4.00;3.60;;;;;;;13.36;100.00;116407.75;5377226;26;20004;-68
2024/04/23 11:18:42;;;;;;;5.05;3.75;;;;;;;13.28;100.00;116504.13;5378041;26;20014;-67
2024/04/23 11:21:11;;;;;;;5.28;3.72;;;;;;;12.85;100.00;116395.94;5378070;26;20000;-66
2024/04/23 11:23:39;;;;;;;5.30;3.78;;;;;;;12.16;100.00;116265.56;5375995;26;20004;-67